EGXWEGVN

Guest
Details From EGXW - RAF Waddington
To EGVN - RAF Brize Norton
Flight Number -
Tags generated
Created
Modified
Stats Distance 93 nm / 173 km
Max Altitude 12,100 ft / 3,688 m
Waypoints 3
Social Downloads 1
Likes 0
Share VATSIM

Download

Looking for another format? Having issues loading an existing format? Contact us
Advertisement - Login to hide

Notes

Basic altitude profile: - Ascent Rate: 2500ft/min - Ascent Speed: 250kts - Cruise Altitude: 35000ft - Cruise Speed: 420kts - Descent Rate: 1500ft/min - Descent Speed: 250kts Options: - Use NATs: yes - Use PACOTS: yes - Use low airways: yes - Use high airways: yes

Route

EGXW PIPIN EGVN

ID Type Via Altitude Latitude Longitude Leg Dist Tot Dist Heading (true) Name
O EGXW APT - 0 ft / 0 m 53.16611˚ -0.52391˚ - 0 nm - RAF Waddington
PIPIN FIX - 12,100 ft / 3,688 m 52.61000˚ -0.94167˚ 36 nm 36 nm 205° / 204° -
O EGVN APT - 0 ft / 0 m 51.74998˚ -1.58296˚ 56 nm 93 nm 205° / 204° RAF Brize Norton

Altitude Profile

Advertisement - Login to hide

EGXW

Details ICAO EGXW (WTN)
Name RAF Waddington
Region United Kingdom
Timezone Europe/London (UTC+1.0)
Stats Elevation 231 ft / 70 m (AMSL)
Location 53.166112° -0.523906°
Runways 1
Magnetic Variation 0.713° W

METAR

EGXW 241350Z 05014KT CAVOK 18/11 Q1021 BLU NOSIG

Decode

TAF

TAF EGXW 241316Z 2415/2509 04014KT 9999 FEW016 BECMG 2421/2424 7000 BR BKN007 PROB40 2423/2509 BKN004 PROB30 TEMPO 2423/2509 3000 SHRA

Decode

Departure Runways

ID Width Length Bearing (true) Bearing (mag) Surface Threshold Offset Overrun Length
02 200 ft / 61 m 8,988 ft / 2,740 m 21.63° 22.34° Asphalt 0 ft / 0 m 600 ft / 183 m
20 200 ft / 61 m 8,988 ft / 2,740 m 201.64° 202.35° Asphalt 0 ft / 0 m 0 ft / 0 m

EGVN

Details ICAO EGVN (BZZ)
Name RAF Brize Norton
Region United Kingdom
Timezone Europe/London (UTC+1.0)
Stats Elevation 289 ft / 88 m (AMSL)
Location 51.749979° -1.582958°
Runways 1
Magnetic Variation 0.923° W

METAR

EGVN 241350Z 05008KT 9999 SCT015 BKN050 16/12 Q1020 WHT BECMG FEW015 BLU

Decode

TAF

TAF EGVN 241347Z 2415/2515 05008KT 9999 FEW045 TEMPO 2415/2509 4000 SHRA SCT040CB PROB30 TEMPO 2417/2421 3000 +TSRA BKN015CB BECMG 2502/2504 BKN008 PROB40 2511/2515 SCT018

Decode

Destination Runways

ID Width Length Bearing (true) Bearing (mag) Surface Threshold Offset Overrun Length
08 184 ft / 56 m 10,016 ft / 3,053 m 73.42° 74.34° Asphalt 0 ft / 0 m 459 ft / 140 m
26 184 ft / 56 m 10,016 ft / 3,053 m 253.46° 254.38° Asphalt 0 ft / 0 m 577 ft / 176 m

Approach Navaids

Runway Type Ident Frequency Range Bearing (true) Bearing (mag) Slope Elevation
08 Localiser BZA 111.90 MHz 18 nm / 33 km 73.48° 74.40° - 288 ft / 88 m (AMSL)
08 Glidescope BZA 111.90 MHz 10 nm / 19 km 73.44° 74.36° 3.20° 289 ft / 88 m (AMSL)
26 Localiser BZB 111.90 MHz 18 nm / 33 km 253.43° 254.36° - 288 ft / 88 m (AMSL)
26 Glidescope BZB 111.90 MHz 10 nm / 19 km 253.44° 254.36° 3.00° 289 ft / 88 m (AMSL)

Popular Alternatives